createdAt,value
2017-06-01T00:02:00.306Z,75.90
2017-06-01T00:04:28.225Z,75.00
2017-06-01T00:06:56.130Z,75.40
2017-06-01T00:09:23.610Z,75.40
2017-06-01T00:11:51.506Z,77.70
2017-06-01T00:14:19.382Z,78.20
2017-06-01T00:16:46.867Z,78.20
2017-06-01T00:19:14.769Z,77.00
2017-06-01T00:21:42.650Z,76.80
2017-06-01T00:24:10.151Z,76.80
2017-06-01T00:26:38.033Z,76.80
2017-06-01T00:29:05.918Z,77.40
2017-06-01T00:31:33.805Z,77.40
2017-06-01T00:34:01.702Z,76.60
2017-06-01T00:36:29.566Z,77.10
2017-06-01T00:38:57.441Z,78.00
2017-06-01T00:41:24.958Z,78.00
2017-06-01T00:43:52.829Z,80.10
2017-06-01T00:46:20.302Z,80.20
2017-06-01T00:48:48.211Z,82.50
2017-06-01T00:51:16.106Z,83.20
2017-06-01T00:53:43.974Z,84.30
2017-06-01T00:56:11.882Z,83.70
2017-06-01T00:58:39.754Z,82.90
2017-06-01T01:01:07.645Z,81.70
2017-06-01T01:03:35.837Z,80.40
2017-06-01T01:06:03.726Z,80.50
2017-06-01T01:08:31.216Z,80.50
2017-06-01T01:10:58.794Z,83.10
2017-06-01T01:13:26.670Z,84.60
2017-06-01T01:15:54.150Z,84.60
2017-06-01T01:18:21.666Z,84.80
2017-06-01T01:20:49.544Z,84.80
2017-06-01T01:23:17.427Z,84.70
2017-06-01T01:25:44.937Z,84.70
2017-06-01T01:28:12.806Z,83.00
2017-06-01T01:30:40.701Z,82.00
2017-06-01T01:33:08.473Z,82.00
2017-06-01T01:35:36.362Z,81.00
2017-06-01T01:38:04.237Z,81.80
2017-06-01T01:40:31.743Z,81.80
2017-06-01T01:42:59.630Z,83.90
2017-06-01T01:45:27.513Z,85.20
2017-06-01T01:47:55.430Z,84.60
2017-06-01T01:50:23.303Z,83.70
2017-06-01T01:52:51.178Z,84.20
2017-06-01T01:55:19.066Z,83.00
2017-06-01T01:57:46.962Z,83.30
2017-06-01T02:00:14.854Z,84.10
2017-06-01T02:02:42.943Z,83.80
2017-06-01T02:05:10.835Z,83.10
2017-06-01T02:07:38.729Z,82.70
2017-06-01T02:10:06.242Z,82.70
2017-06-01T02:12:34.118Z,83.60
2017-06-01T02:15:02.010Z,83.20
2017-06-01T02:17:30.142Z,83.10
2017-06-01T02:19:58.014Z,83.80
2017-06-01T02:22:25.492Z,83.80
2017-06-01T02:24:53.402Z,82.80
2017-06-01T02:27:21.290Z,83.10
2017-06-01T02:29:49.165Z,82.60
2017-06-01T02:32:17.323Z,82.00
2017-06-01T02:34:45.193Z,82.20
2017-06-01T02:37:13.140Z,82.70
2017-06-01T02:39:40.805Z,82.70
2017-06-01T02:42:08.689Z,83.40
2017-06-01T02:44:36.553Z,84.90
2017-06-01T02:47:04.464Z,84.80
2017-06-01T02:49:32.342Z,83.70
2017-06-01T02:52:00.218Z,83.40
2017-06-01T02:54:27.901Z,83.40
2017-06-01T02:56:55.777Z,84.40
2017-06-01T02:59:23.651Z,84.70
2017-06-01T03:01:51.547Z,84.70
2017-06-01T03:04:19.433Z,84.30
2017-06-01T03:06:47.311Z,83.80
2017-06-01T03:09:15.222Z,83.50
2017-06-01T03:11:42.702Z,83.50
2017-06-01T03:14:10.574Z,82.90
2017-06-01T03:16:38.110Z,82.90
2017-06-01T03:19:05.986Z,82.80
2017-06-01T03:21:33.458Z,82.80
2017-06-01T03:24:01.345Z,82.80
2017-06-01T03:26:29.225Z,83.10
2017-06-01T03:28:57.110Z,85.80
2017-06-01T03:31:25.029Z,87.10
2017-06-01T03:33:52.500Z,87.20
2017-06-01T03:36:20.376Z,86.30
2017-06-01T03:38:47.890Z,86.30
2017-06-01T03:41:15.758Z,86.20
2017-06-01T03:43:43.621Z,88.30
2017-06-01T03:46:11.543Z,89.90
2017-06-01T03:48:39.425Z,89.90
2017-06-01T03:51:07.290Z,89.70
2017-06-01T03:53:35.192Z,89.00
2017-06-01T03:56:03.057Z,89.30
2017-06-01T03:58:30.921Z,89.60
2017-06-01T04:00:58.440Z,89.60
2017-06-01T04:03:25.926Z,89.00
2017-06-01T04:05:53.798Z,88.30
2017-06-01T04:08:21.859Z,88.80
2017-06-01T04:10:49.725Z,89.10
2017-06-01T04:13:17.609Z,89.00
2017-06-01T04:15:45.521Z,88.80
2017-06-01T04:18:13.391Z,89.00
2017-06-01T04:20:41.255Z,88.80
2017-06-01T04:23:09.167Z,89.00
2017-06-01T04:25:37.054Z,89.00
2017-06-01T04:28:04.930Z,86.90
2017-06-01T04:30:33.093Z,87.20
2017-06-01T04:33:00.972Z,87.80
2017-06-01T04:35:28.465Z,87.80
2017-06-01T04:37:56.269Z,88.30
2017-06-01T04:40:24.162Z,88.20
2017-06-01T04:42:52.050Z,87.80
2017-06-01T04:45:19.961Z,86.70
2017-06-01T04:47:47.834Z,86.80
2017-06-01T04:50:15.711Z,86.50
2017-06-01T04:52:44.357Z,85.50
2017-06-01T04:55:12.292Z,85.20
2017-06-01T04:57:40.120Z,84.70
2017-06-01T05:00:08.127Z,84.90
2017-06-01T05:02:36.025Z,84.80
2017-06-01T05:05:03.919Z,84.40
2017-06-01T05:07:31.824Z,83.10
2017-06-01T05:09:59.699Z,83.90
2017-06-01T05:12:27.572Z,83.70
2017-06-01T05:14:55.477Z,84.20
2017-06-01T05:17:23.355Z,83.70
2017-06-01T05:19:51.222Z,84.10
2017-06-01T05:22:19.123Z,82.70
2017-06-01T05:24:46.998Z,83.10
2017-06-01T05:27:14.490Z,83.10
2017-06-01T05:29:42.663Z,81.00
2017-06-01T05:32:10.524Z,81.10
2017-06-01T05:34:38.397Z,80.80
2017-06-01T05:37:06.306Z,81.10
2017-06-01T05:39:34.190Z,81.30
2017-06-01T05:42:02.057Z,80.70
2017-06-01T05:44:30.254Z,81.60
2017-06-01T05:46:58.140Z,81.00
2017-06-01T05:49:26.010Z,81.20
2017-06-01T05:51:53.521Z,81.20
2017-06-01T05:54:21.389Z,79.20
2017-06-01T05:56:49.273Z,79.00
2017-06-01T05:59:17.202Z,79.10
2017-06-01T06:01:45.091Z,79.40
2017-06-01T06:04:12.582Z,79.40
2017-06-01T06:06:40.830Z,78.80
2017-06-01T06:09:08.724Z,77.60
2017-06-01T06:11:36.625Z,78.60
2017-06-01T06:14:04.528Z,78.90
2017-06-01T06:16:32.408Z,78.20
2017-06-01T06:18:59.923Z,78.20
2017-06-01T06:21:28.032Z,77.10
2017-06-01T06:23:55.905Z,77.60
2017-06-01T06:26:23.786Z,77.30
2017-06-01T06:28:52.013Z,77.40
2017-06-01T06:31:19.889Z,76.50
2017-06-01T06:33:47.752Z,77.20
2017-06-01T06:36:15.925Z,77.60
2017-06-01T06:38:43.813Z,76.50
2017-06-01T06:41:11.698Z,75.70
2017-06-01T06:43:39.816Z,73.70
2017-06-01T06:46:07.699Z,73.80
2017-06-01T06:48:35.580Z,74.90
2017-06-01T06:51:03.515Z,74.80
2017-06-01T06:53:31.642Z,74.40
2017-06-01T06:55:59.543Z,73.40
2017-06-01T06:58:27.475Z,73.90
2017-06-01T07:00:55.362Z,73.00
2017-06-01T07:03:23.250Z,73.50
2017-06-01T07:05:51.421Z,71.90
2017-06-01T07:08:19.294Z,72.70
2017-06-01T07:10:47.184Z,72.60
2017-06-01T07:13:15.233Z,72.70
2017-06-01T07:15:42.717Z,72.70
2017-06-01T07:18:10.606Z,71.80
2017-06-01T07:20:38.812Z,72.70
2017-06-01T07:23:06.684Z,74.80
2017-06-01T07:25:34.556Z,75.20
2017-06-01T07:28:02.481Z,75.70
2017-06-01T07:30:30.364Z,75.10
2017-06-01T07:32:58.241Z,74.60
2017-06-01T07:35:26.433Z,74.80
2017-06-01T07:37:54.320Z,73.80
2017-06-01T07:40:22.214Z,74.40
2017-06-01T07:42:50.203Z,73.70
2017-06-01T07:45:18.334Z,73.10
2017-06-01T07:47:46.209Z,72.00
2017-06-01T07:50:14.134Z,71.00
2017-06-01T07:52:42.031Z,71.20
2017-06-01T07:55:09.985Z,70.90
2017-06-01T07:57:37.516Z,70.90
2017-06-01T08:00:05.403Z,70.80
2017-06-01T08:02:33.307Z,71.10
2017-06-01T08:05:01.516Z,69.40
2017-06-01T08:07:29.412Z,69.40
2017-06-01T08:09:58.459Z,68.30
2017-06-01T08:12:26.407Z,67.40
2017-06-01T08:14:54.293Z,67.10
2017-06-01T08:17:22.166Z,66.70
2017-06-01T08:19:50.092Z,65.90
2017-06-01T08:22:17.984Z,66.00
2017-06-01T08:24:45.902Z,66.00
2017-06-01T08:27:14.143Z,65.30
2017-06-01T08:29:42.010Z,67.00
2017-06-01T08:32:09.885Z,67.60
2017-06-01T08:34:37.398Z,67.60
2017-06-01T08:37:05.284Z,70.30
2017-06-01T08:39:33.157Z,69.30
2017-06-01T08:42:01.275Z,69.10
2017-06-01T08:44:29.149Z,66.40
2017-06-01T08:46:57.052Z,64.90
2017-06-01T08:49:25.238Z,65.10
2017-06-01T08:51:52.716Z,65.10
2017-06-01T08:54:20.593Z,67.50
2017-06-01T08:56:48.486Z,66.60
2017-06-01T08:59:15.961Z,66.60
2017-06-01T09:01:43.826Z,64.50
2017-06-01T09:04:11.997Z,63.70
2017-06-01T09:06:39.861Z,64.90
2017-06-01T09:09:07.725Z,64.40
2017-06-01T09:11:35.876Z,64.70
2017-06-01T09:14:03.741Z,65.40
2017-06-01T09:16:31.624Z,66.20
2017-06-01T09:18:59.628Z,65.80
2017-06-01T09:21:27.707Z,64.90
2017-06-01T09:23:55.578Z,63.90
2017-06-01T09:26:23.616Z,62.80
2017-06-01T09:28:51.482Z,62.20
2017-06-01T09:31:18.961Z,62.20
2017-06-01T09:33:47.099Z,63.50
2017-06-01T09:36:14.969Z,62.50
2017-06-01T09:38:43.374Z,61.10
2017-06-01T09:41:11.506Z,61.50
2017-06-01T09:43:39.388Z,63.00
2017-06-01T09:46:07.252Z,62.70
2017-06-01T09:48:35.134Z,61.70
2017-06-01T09:51:03.021Z,62.60
2017-06-01T09:53:30.908Z,60.50
2017-06-01T09:55:58.826Z,60.20
2017-06-01T09:58:26.913Z,61.20
2017-06-01T10:00:54.797Z,60.90
2017-06-01T10:03:22.787Z,60.80
2017-06-01T10:05:50.650Z,61.00
2017-06-01T10:08:18.150Z,61.00
2017-06-01T10:10:46.061Z,63.10
2017-06-01T10:13:13.924Z,59.70
2017-06-01T10:15:41.406Z,59.70
2017-06-01T10:18:09.305Z,59.40
2017-06-01T10:20:37.177Z,60.90
2017-06-01T10:23:04.669Z,60.90
2017-06-01T10:25:32.572Z,59.90
2017-06-01T10:28:00.442Z,57.20
2017-06-01T10:30:28.353Z,58.50
2017-06-01T10:32:55.869Z,58.50
2017-06-01T10:35:23.768Z,61.40
2017-06-01T10:37:51.651Z,58.70
2017-06-01T10:40:19.542Z,58.80
2017-06-01T10:42:47.411Z,59.00
2017-06-01T10:45:15.277Z,59.10
2017-06-01T10:47:43.585Z,59.20
2017-06-01T10:50:11.467Z,58.70
2017-06-01T10:52:39.332Z,57.30
2017-06-01T10:55:06.938Z,57.30
2017-06-01T10:57:34.871Z,57.00
2017-06-01T11:00:02.780Z,55.00
2017-06-01T11:02:30.705Z,56.00
2017-06-01T11:04:58.590Z,56.50
2017-06-01T11:07:26.453Z,56.20
2017-06-01T11:09:54.059Z,56.10
2017-06-01T11:12:21.947Z,56.70
2017-06-01T11:14:49.836Z,57.70
2017-06-01T11:17:17.745Z,55.60
2017-06-01T11:19:45.626Z,55.40
2017-06-01T11:22:13.527Z,56.60
2017-06-01T11:24:41.434Z,55.80
2017-06-01T11:27:09.310Z,56.60
2017-06-01T11:29:36.817Z,56.60
2017-06-01T11:32:04.738Z,55.30
2017-06-01T11:34:32.614Z,54.60
2017-06-01T11:37:00.491Z,53.80
2017-06-01T11:39:28.392Z,52.70
2017-06-01T11:41:56.280Z,52.80
2017-06-01T11:44:24.176Z,53.20
2017-06-01T11:46:52.115Z,53.20
2017-06-01T11:49:19.989Z,51.30
2017-06-01T11:51:47.894Z,50.90
2017-06-01T11:54:16.013Z,52.20
2017-06-01T11:56:43.894Z,51.60
2017-06-01T11:59:11.760Z,51.50
2017-06-01T12:01:39.869Z,51.70
2017-06-01T12:04:07.756Z,51.00
2017-06-01T12:06:35.882Z,51.00
2017-06-01T12:09:03.807Z,51.70
2017-06-01T12:11:31.693Z,50.70
2017-06-01T12:13:59.180Z,50.70
2017-06-01T12:16:27.290Z,51.00
2017-06-01T12:18:54.800Z,50.60
2017-06-01T12:21:22.666Z,48.80
2017-06-01T12:23:50.553Z,48.00
2017-06-01T12:26:18.435Z,47.90
2017-06-01T12:28:46.937Z,47.90
2017-06-01T12:31:14.862Z,48.70
2017-06-01T12:33:42.369Z,48.70
2017-06-01T12:36:10.244Z,51.20
2017-06-01T12:38:37.759Z,51.10
2017-06-01T12:41:05.630Z,49.50
2017-06-01T12:43:33.511Z,48.30
2017-06-01T12:46:01.390Z,48.10
2017-06-01T12:48:29.261Z,48.50
2017-06-01T12:50:57.137Z,47.90
2017-06-01T12:53:25.129Z,46.40
2017-06-01T12:55:53.005Z,47.60
2017-06-01T12:58:20.891Z,46.20
2017-06-01T13:00:48.890Z,44.30
2017-06-01T13:03:16.390Z,44.30
2017-06-01T13:05:44.272Z,45.20
2017-06-01T13:08:12.440Z,44.70
2017-06-01T13:10:40.333Z,46.60
2017-06-01T13:13:08.215Z,46.50
2017-06-01T13:15:36.393Z,45.20
2017-06-01T13:18:04.289Z,44.70
2017-06-01T13:20:32.164Z,45.70
2017-06-01T13:23:00.225Z,45.70
2017-06-01T13:25:28.128Z,46.20
2017-06-01T13:27:55.625Z,46.20
2017-06-01T13:30:23.537Z,45.60
2017-06-01T13:32:51.410Z,43.50
2017-06-01T13:35:19.331Z,43.30
2017-06-01T13:37:47.227Z,44.60
2017-06-01T13:40:15.093Z,45.80
2017-06-01T13:42:43.437Z,45.70
2017-06-01T13:45:11.352Z,45.70
2017-06-01T13:47:39.221Z,44.40
2017-06-01T13:50:07.129Z,43.70
2017-06-01T13:52:35.114Z,41.70
2017-06-01T13:55:03.001Z,42.40
2017-06-01T13:57:30.868Z,42.20
2017-06-01T13:59:59.037Z,42.50
2017-06-01T14:02:26.542Z,42.50
2017-06-01T14:04:54.432Z,40.60
2017-06-01T14:07:22.343Z,42.50
2017-06-01T14:09:49.825Z,42.50
2017-06-01T14:12:17.709Z,42.80
2017-06-01T14:14:45.610Z,43.40
2017-06-01T14:17:13.501Z,43.60
2017-06-01T14:19:41.364Z,43.30
2017-06-01T14:22:09.258Z,44.60
2017-06-01T14:24:37.159Z,45.70
2017-06-01T14:27:05.044Z,47.80
2017-06-01T14:29:33.143Z,48.00
2017-06-01T14:32:01.018Z,45.00
2017-06-01T14:34:28.906Z,43.50
2017-06-01T14:36:57.017Z,43.60
2017-06-01T14:39:24.881Z,44.30
2017-06-01T14:41:52.774Z,45.80
2017-06-01T14:44:21.010Z,45.60
2017-06-01T14:46:48.892Z,46.40
2017-06-01T14:49:16.403Z,46.40
2017-06-01T14:51:44.512Z,48.50
2017-06-01T14:54:12.392Z,49.10
2017-06-01T14:56:40.303Z,47.30
2017-06-01T14:59:08.513Z,48.00
2017-06-01T15:01:36.429Z,49.30
2017-06-01T15:04:04.316Z,47.90
2017-06-01T15:06:32.234Z,48.80
2017-06-01T15:09:00.119Z,47.90
2017-06-01T15:11:28.009Z,48.80
2017-06-01T15:13:56.112Z,49.30
2017-06-01T15:16:23.997Z,49.60
2017-06-01T15:18:51.485Z,49.60
2017-06-01T15:21:20.433Z,50.20
2017-06-01T15:23:48.320Z,49.50
2017-06-01T15:26:16.207Z,49.10
2017-06-01T15:28:44.366Z,49.60
2017-06-01T15:31:12.271Z,50.10
2017-06-01T15:33:40.160Z,50.10
2017-06-01T15:36:08.319Z,51.50
2017-06-01T15:38:36.197Z,51.30
2017-06-01T15:41:04.074Z,50.90
2017-06-01T15:43:31.973Z,50.00
2017-06-01T15:45:59.872Z,48.70
2017-06-01T15:48:27.761Z,46.80
2017-06-01T15:50:55.678Z,46.70
2017-06-01T15:53:24.456Z,47.50
2017-06-01T15:55:52.354Z,47.80
2017-06-01T15:58:20.374Z,47.50
2017-06-01T16:00:50.203Z,47.20
2017-06-01T16:03:18.408Z,48.50
2017-06-01T16:05:46.318Z,48.40
2017-06-01T16:08:14.198Z,48.10
2017-06-01T16:10:42.919Z,48.90
2017-06-01T16:13:10.794Z,47.80
2017-06-01T16:15:38.729Z,48.00
2017-06-01T16:18:06.620Z,46.40
2017-06-01T16:20:34.509Z,46.20
2017-06-01T16:23:02.417Z,45.10
2017-06-01T16:25:30.300Z,44.80
2017-06-01T16:27:58.187Z,44.00
2017-06-01T16:30:26.104Z,44.30
2017-06-01T16:32:53.992Z,45.10
2017-06-01T16:35:21.879Z,44.80
2017-06-01T16:37:50.068Z,44.00
2017-06-01T16:40:17.960Z,44.00
2017-06-01T16:42:45.453Z,44.00
2017-06-01T16:45:13.567Z,46.50
2017-06-01T16:47:41.078Z,46.50
2017-06-01T16:50:08.951Z,47.50
2017-06-01T16:52:37.212Z,47.30
2017-06-01T16:55:05.453Z,45.70
2017-06-01T16:57:36.371Z,44.60
2017-06-01T17:00:04.812Z,44.40
2017-06-01T17:02:32.703Z,45.60
2017-06-01T17:05:00.578Z,47.70
2017-06-01T17:07:28.603Z,48.30
2017-06-01T17:09:56.488Z,47.90
2017-06-01T17:12:24.383Z,47.60
2017-06-01T17:14:52.647Z,44.80
2017-06-01T17:17:20.533Z,46.10
2017-06-01T17:19:48.411Z,46.90
2017-06-01T17:22:16.316Z,47.30
2017-06-01T17:24:44.203Z,47.60
2017-06-01T17:27:12.735Z,47.70
2017-06-01T17:29:41.237Z,47.70
2017-06-01T17:32:09.140Z,47.10
2017-06-01T17:34:37.021Z,48.50
2017-06-01T17:37:05.057Z,48.80
2017-06-01T17:39:32.944Z,48.80
2017-06-01T17:42:00.834Z,49.50
2017-06-01T17:44:28.918Z,49.40
2017-06-01T17:46:56.807Z,50.20
2017-06-01T17:49:24.697Z,50.20
2017-06-01T17:51:52.872Z,49.90
2017-06-01T17:54:20.779Z,49.40
2017-06-01T17:56:48.676Z,49.90
2017-06-01T17:59:16.532Z,49.90
2017-06-01T18:01:44.445Z,49.70
2017-06-01T18:04:11.948Z,49.70
2017-06-01T18:06:42.964Z,50.10
2017-06-01T18:09:10.889Z,49.90
2017-06-01T18:11:38.916Z,50.40
2017-06-01T18:14:06.829Z,50.60
2017-06-01T18:16:34.773Z,51.10
2017-06-01T18:19:02.719Z,51.40
2017-06-01T18:21:30.725Z,52.10
2017-06-01T18:23:58.228Z,52.10
2017-06-01T18:26:26.324Z,53.00
2017-06-01T18:28:54.421Z,53.00
2017-06-01T18:31:22.570Z,53.00
2017-06-01T18:33:50.653Z,53.10
2017-06-01T18:36:19.000Z,52.80
2017-06-01T18:38:47.138Z,52.90
2017-06-01T18:41:15.347Z,53.30
2017-06-01T18:43:43.526Z,54.10
2017-06-01T18:46:11.870Z,54.50
2017-06-01T18:48:40.598Z,55.30
2017-06-01T18:51:08.586Z,55.30
2017-06-01T18:53:36.533Z,55.70
2017-06-01T18:56:06.616Z,56.60
2017-06-01T18:58:34.973Z,57.30
2017-06-01T19:01:03.384Z,57.90
2017-06-01T19:03:31.796Z,58.10
2017-06-01T19:06:00.285Z,58.50
2017-06-01T19:08:28.614Z,59.10
2017-06-01T19:10:57.318Z,59.40
2017-06-01T19:13:25.615Z,59.90
2017-06-01T19:15:53.913Z,60.20
2017-06-01T19:18:22.312Z,60.60
2017-06-01T19:20:50.619Z,60.90
2017-06-01T19:23:19.114Z,61.40
2017-06-01T19:25:47.675Z,61.80
2017-06-01T19:28:16.004Z,61.80
2017-06-01T19:30:44.378Z,61.90
2017-06-01T19:33:12.778Z,62.90
2017-06-01T19:35:41.334Z,63.40
2017-06-01T19:38:09.743Z,63.90
2017-06-01T19:40:38.267Z,64.60
2017-06-01T19:43:07.916Z,65.00
2017-06-01T19:45:36.369Z,65.60
2017-06-01T19:48:04.778Z,66.30
2017-06-01T19:50:33.187Z,66.30
2017-06-01T19:53:02.207Z,67.10
2017-06-01T19:55:30.223Z,67.10
2017-06-01T19:57:58.886Z,67.00
2017-06-01T20:00:27.426Z,67.10
2017-06-01T20:02:55.765Z,66.90
2017-06-01T20:05:24.395Z,67.40
2017-06-01T20:07:52.415Z,67.40
2017-06-01T20:10:20.791Z,67.80
2017-06-01T20:12:49.170Z,68.10
2017-06-01T20:15:17.988Z,68.40
2017-06-01T20:17:46.301Z,69.30
2017-06-01T20:20:14.740Z,70.10
2017-06-01T20:22:43.095Z,70.80
2017-06-01T20:25:11.423Z,70.40
2017-06-01T20:27:40.154Z,70.40
2017-06-01T20:30:08.471Z,70.10
2017-06-01T20:32:36.782Z,70.10
2017-06-01T20:35:05.243Z,69.40
2017-06-01T20:37:33.553Z,69.90
2017-06-01T20:40:01.944Z,70.50
2017-06-01T20:42:30.319Z,69.90
2017-06-01T20:44:58.598Z,70.60
2017-06-01T20:47:26.926Z,70.70
2017-06-01T20:49:55.493Z,70.70
2017-06-01T20:52:23.745Z,71.10
2017-06-01T20:54:52.023Z,71.50
2017-06-01T20:57:20.265Z,71.50
2017-06-01T20:59:48.417Z,72.10
2017-06-01T21:02:16.646Z,72.00
2017-06-01T21:04:44.490Z,72.00
2017-06-01T21:07:12.279Z,72.90
2017-06-01T21:09:40.385Z,72.00
2017-06-01T21:12:08.928Z,72.30
2017-06-01T21:14:36.946Z,72.40
2017-06-01T21:17:04.915Z,72.70
2017-06-01T21:19:32.953Z,73.50
2017-06-01T21:22:00.992Z,73.10
2017-06-01T21:24:28.982Z,73.50
2017-06-01T21:26:57.161Z,73.90
2017-06-01T21:29:25.095Z,74.00
2017-06-01T21:31:53.063Z,74.50
2017-06-01T21:34:21.047Z,74.70
2017-06-01T21:36:49.542Z,74.60
2017-06-01T21:39:17.471Z,74.60
2017-06-01T21:41:45.396Z,74.50
2017-06-01T21:44:12.891Z,74.50
2017-06-01T21:46:40.779Z,74.90
2017-06-01T21:49:08.307Z,74.90
2017-06-01T21:51:36.177Z,75.40
2017-06-01T21:54:04.062Z,75.40
2017-06-01T21:56:32.379Z,75.50
2017-06-01T21:59:00.257Z,75.70
2017-06-01T22:01:28.150Z,75.60
2017-06-01T22:03:56.065Z,75.90
2017-06-01T22:06:23.953Z,75.80
2017-06-01T22:08:51.455Z,75.80
2017-06-01T22:11:18.985Z,75.80
2017-06-01T22:13:46.887Z,76.30
2017-06-01T22:16:14.757Z,76.00
2017-06-01T22:18:42.992Z,76.50
2017-06-01T22:21:10.866Z,77.00
2017-06-01T22:23:38.761Z,76.60
2017-06-01T22:26:06.668Z,76.70
2017-06-01T22:28:34.567Z,77.00
2017-06-01T22:31:02.439Z,77.00
2017-06-01T22:33:30.334Z,77.10
2017-06-01T22:35:58.230Z,77.40
2017-06-01T22:38:26.124Z,77.40
2017-06-01T22:40:54.105Z,77.80
2017-06-01T22:43:21.970Z,77.50
2017-06-01T22:45:50.436Z,77.60
2017-06-01T22:48:18.963Z,77.50
2017-06-01T22:50:46.840Z,77.30
2017-06-01T22:53:14.721Z,77.60
2017-06-01T22:55:42.508Z,77.60
2017-06-01T22:58:10.372Z,77.90
2017-06-01T23:00:38.242Z,78.10
2017-06-01T23:03:06.382Z,77.80
2017-06-01T23:05:34.255Z,78.20
2017-06-01T23:08:02.133Z,78.10
2017-06-01T23:10:30.045Z,78.20
2017-06-01T23:12:57.913Z,78.30
2017-06-01T23:15:25.798Z,78.20
2017-06-01T23:17:53.689Z,77.90
2017-06-01T23:20:21.576Z,78.30
2017-06-01T23:22:49.086Z,78.30
2017-06-01T23:25:16.990Z,78.90
2017-06-01T23:27:44.877Z,78.60
2017-06-01T23:30:12.741Z,78.90
2017-06-01T23:32:40.660Z,78.90
2017-06-01T23:35:08.553Z,78.80
2017-06-01T23:37:36.437Z,78.90
2017-06-01T23:40:04.688Z,78.80
2017-06-01T23:42:32.569Z,79.10
2017-06-01T23:45:00.441Z,79.00
2017-06-01T23:47:28.678Z,79.30
2017-06-01T23:49:56.170Z,79.30
2017-06-01T23:52:24.071Z,79.30
2017-06-01T23:54:52.063Z,79.80
2017-06-01T23:57:20.583Z,79.90
2017-06-01T23:59:48.463Z,79.80
